createdAt,value
2023-02-13T00:00:18.326Z,53.03
2023-02-13T00:05:10.076Z,52.60
2023-02-13T00:10:01.842Z,50.83
2023-02-13T00:14:54.175Z,53.78
2023-02-13T00:19:45.964Z,53.92
2023-02-13T00:24:37.869Z,54.47
2023-02-13T00:29:29.628Z,53.17
2023-02-13T00:34:21.434Z,53.35
2023-02-13T00:39:13.297Z,53.47
2023-02-13T00:44:05.516Z,55.75
2023-02-13T00:48:57.240Z,53.03
2023-02-13T00:53:49.016Z,52.85
2023-02-13T00:58:40.987Z,51.80
2023-02-13T01:03:32.856Z,55.28
2023-02-13T01:08:24.927Z,56.45
2023-02-13T01:13:21.006Z,55.40
2023-02-13T01:18:14.925Z,55.97
2023-02-13T01:23:06.688Z,53.55
2023-02-13T01:27:58.527Z,58.20
2023-02-13T01:32:50.281Z,55.13
2023-02-13T01:37:43.063Z,55.45
2023-02-13T01:42:35.836Z,56.00
2023-02-13T01:47:35.017Z,56.83
2023-02-13T01:52:27.164Z,57.08
2023-02-13T01:57:22.264Z,57.13
2023-02-13T02:02:15.949Z,55.42
2023-02-13T02:07:11.987Z,54.17
2023-02-13T02:12:03.728Z,54.30
2023-02-13T02:16:56.465Z,54.95
2023-02-13T02:22:19.050Z,54.28
2023-02-13T02:27:36.364Z,56.13
2023-02-13T02:32:40.513Z,55.03
2023-02-13T02:37:57.322Z,56.08
2023-02-13T02:43:01.116Z,57.47
2023-02-13T02:48:33.564Z,52.70
2023-02-13T02:53:46.753Z,50.13
2023-02-13T02:59:11.071Z,45.10
2023-02-13T03:04:23.390Z,46.38
2023-02-13T03:09:48.891Z,45.60
2023-02-13T03:14:42.045Z,40.03
2023-02-13T03:20:14.315Z,41.08
2023-02-13T03:25:30.462Z,38.20
2023-02-13T03:30:39.291Z,37.90
2023-02-13T03:41:18.466Z,34.05
2023-02-13T03:46:11.365Z,32.38
2023-02-13T03:51:05.436Z,34.08
2023-02-13T03:56:16.854Z,31.48
2023-02-13T04:01:11.933Z,32.17
2023-02-13T04:06:11.381Z,30.65
2023-02-13T04:11:21.746Z,31.42
2023-02-13T04:16:18.493Z,28.80
2023-02-13T04:21:10.251Z,30.23
2023-02-13T04:26:05.571Z,30.38
2023-02-13T04:30:58.321Z,29.40
2023-02-13T04:35:50.318Z,29.05
2023-02-13T04:40:42.065Z,29.40
2023-02-13T04:45:33.816Z,28.65
2023-02-13T04:50:26.203Z,28.23
2023-02-13T04:55:18.072Z,29.35
2023-02-13T05:00:11.200Z,27.90
2023-02-13T05:05:02.966Z,28.13
2023-02-13T05:09:54.735Z,27.40
2023-02-13T05:14:46.458Z,27.75
2023-02-13T05:19:38.227Z,28.83
2023-02-13T05:24:29.944Z,28.73
2023-02-13T05:29:24.870Z,31.48
2023-02-13T05:34:16.771Z,25.60
2023-02-13T05:39:08.792Z,27.92
2023-02-13T05:44:00.548Z,28.73
2023-02-13T05:48:52.866Z,28.77
2023-02-13T05:53:44.621Z,27.27
2023-02-13T05:58:36.509Z,26.98
2023-02-13T06:03:31.739Z,28.52
2023-02-13T06:08:24.188Z,29.45
2023-02-13T06:13:17.076Z,26.88
2023-02-13T06:18:09.195Z,25.85
2023-02-13T06:23:00.945Z,25.08
2023-02-13T06:27:52.798Z,26.88
2023-02-13T06:32:47.052Z,25.00
2023-02-13T06:37:39.447Z,26.52
2023-02-13T06:42:31.344Z,26.33
2023-02-13T06:47:23.273Z,27.27
2023-02-13T06:52:15.056Z,25.23
2023-02-13T06:57:06.772Z,27.60
2023-02-13T07:01:58.529Z,25.92
2023-02-13T07:06:50.239Z,24.50
2023-02-13T07:11:42.393Z,25.33
2023-02-13T07:16:34.191Z,26.80
2023-02-13T07:21:25.961Z,28.13
2023-02-13T07:26:17.687Z,27.85
2023-02-13T07:31:09.701Z,26.73
2023-02-13T07:36:03.729Z,28.45
2023-02-13T07:40:58.320Z,29.40
2023-02-13T07:45:50.187Z,30.05
2023-02-13T07:50:41.953Z,31.10
2023-02-13T07:55:33.713Z,31.35
2023-02-13T08:00:25.634Z,32.67
2023-02-13T08:05:17.442Z,31.85
2023-02-13T08:10:30.272Z,32.97
2023-02-13T08:15:22.171Z,35.38
2023-02-13T08:20:14.048Z,35.38
2023-02-13T08:25:07.012Z,38.75
2023-02-13T08:29:59.331Z,43.58
2023-02-13T08:34:51.235Z,45.97
2023-02-13T08:39:43.408Z,49.72
2023-02-13T08:44:35.276Z,51.33
2023-02-13T08:49:27.117Z,48.58
2023-02-13T08:54:18.879Z,53.60
2023-02-13T08:59:10.628Z,53.58
2023-02-13T09:04:02.432Z,58.97
2023-02-13T09:08:55.262Z,59.17
2023-02-13T09:13:48.448Z,68.22
2023-02-13T09:18:40.181Z,59.55
2023-02-13T09:23:34.634Z,63.60
2023-02-13T09:28:26.400Z,63.50
2023-02-13T09:33:18.246Z,64.88
2023-02-13T09:38:09.982Z,64.07
2023-02-13T09:43:14.581Z,67.60
2023-02-13T09:48:08.632Z,65.90
2023-02-13T09:53:01.144Z,58.13
2023-02-13T09:57:55.874Z,60.90
2023-02-13T10:02:59.579Z,65.57
2023-02-13T10:08:05.616Z,63.67
2023-02-13T10:13:19.340Z,64.35
2023-02-13T10:18:16.362Z,63.08
2023-02-13T10:23:49.340Z,66.50
2023-02-13T10:28:47.030Z,64.07
2023-02-13T10:33:51.970Z,64.63
2023-02-13T10:38:52.301Z,64.60
2023-02-13T10:44:00.665Z,61.10
2023-02-13T10:49:08.035Z,65.13
2023-02-13T10:53:59.840Z,62.55
2023-02-13T10:59:04.539Z,59.00
2023-02-13T11:04:22.893Z,62.88
2023-02-13T11:09:14.760Z,59.27
2023-02-13T11:14:11.789Z,59.83
2023-02-13T11:19:03.566Z,58.92
2023-02-13T11:23:57.579Z,60.40
2023-02-13T11:28:54.687Z,55.45
2023-02-13T11:33:46.535Z,61.92
2023-02-13T11:38:38.389Z,60.30
2023-02-13T11:43:35.434Z,57.55
2023-02-13T11:48:27.330Z,58.15
2023-02-13T11:53:23.267Z,55.83
2023-02-13T11:58:15.024Z,57.05
2023-02-13T12:03:22.562Z,54.13
2023-02-13T12:08:14.556Z,54.55
2023-02-13T12:13:27.617Z,53.63
2023-02-13T12:18:29.827Z,52.10
2023-02-13T12:23:39.146Z,53.45
2023-02-13T12:28:44.521Z,54.53
2023-02-13T12:33:58.220Z,51.42
2023-02-13T12:39:00.698Z,51.22
2023-02-13T12:44:16.841Z,50.53
2023-02-13T12:49:32.311Z,49.47
2023-02-13T12:54:43.140Z,49.72
2023-02-13T12:59:47.604Z,47.28
2023-02-13T13:04:48.906Z,48.85
2023-02-13T13:09:46.491Z,46.00
2023-02-13T13:15:06.018Z,46.78
2023-02-13T13:20:09.351Z,47.88
2023-02-13T13:25:10.903Z,47.45
2023-02-13T13:30:29.085Z,47.53
2023-02-13T13:35:22.081Z,46.60
2023-02-13T13:40:25.819Z,39.13
2023-02-13T13:45:33.442Z,39.45
2023-02-13T13:50:28.791Z,38.35
2023-02-13T13:55:58.393Z,37.20
2023-02-13T14:06:07.181Z,40.53
2023-02-13T14:11:02.357Z,39.13
2023-02-13T14:15:55.291Z,38.70
2023-02-13T14:20:54.588Z,40.70
2023-02-13T14:25:47.797Z,36.53
2023-02-13T14:30:40.604Z,37.33
2023-02-13T14:35:35.752Z,38.70
2023-02-13T14:40:44.365Z,37.67
2023-02-13T14:45:47.809Z,36.92
2023-02-13T14:50:57.059Z,40.92
2023-02-13T14:55:56.745Z,36.47
2023-02-13T15:00:57.101Z,35.60
2023-02-13T15:05:52.804Z,34.20
2023-02-13T15:10:49.843Z,35.03
2023-02-13T15:15:42.376Z,35.80
2023-02-13T15:20:37.162Z,34.78
2023-02-13T15:25:37.865Z,35.30
2023-02-13T15:30:36.496Z,32.10
2023-02-13T15:40:27.803Z,28.05
2023-02-13T15:45:20.996Z,31.02
2023-02-13T15:50:19.003Z,30.55
2023-02-13T15:55:29.468Z,34.17
2023-02-13T16:00:30.803Z,28.60
2023-02-13T16:05:38.511Z,32.08
2023-02-13T16:15:29.342Z,29.88
2023-02-13T16:20:25.586Z,30.05
2023-02-13T16:25:21.202Z,30.05
2023-02-13T16:30:34.099Z,29.25
2023-02-13T16:35:31.599Z,28.20
2023-02-13T16:40:34.776Z,26.75
2023-02-13T16:45:26.641Z,27.85
2023-02-13T16:50:18.595Z,29.30
2023-02-13T16:55:16.161Z,26.48
2023-02-13T17:00:22.683Z,28.35
2023-02-13T17:05:25.069Z,28.25
2023-02-13T17:10:27.379Z,29.45
2023-02-13T17:15:22.602Z,29.30
2023-02-13T17:20:20.617Z,34.15
2023-02-13T17:25:22.676Z,37.90
2023-02-13T17:30:23.314Z,34.08
2023-02-13T17:35:16.359Z,36.28
2023-02-13T17:40:09.468Z,35.15
2023-02-13T17:45:01.245Z,36.63
2023-02-13T17:49:59.222Z,36.22
2023-02-13T17:54:56.768Z,35.72
2023-02-13T17:59:48.680Z,37.38
2023-02-13T18:04:41.286Z,34.67
2023-02-13T18:09:33.095Z,38.55
2023-02-13T18:14:24.925Z,36.17
2023-02-13T18:19:16.725Z,39.47
2023-02-13T18:24:08.885Z,41.95
2023-02-13T18:29:00.667Z,42.45
2023-02-13T18:33:52.455Z,49.15
2023-02-13T18:38:44.209Z,40.20
2023-02-13T18:43:36.020Z,41.42
2023-02-13T18:48:27.943Z,46.10
2023-02-13T18:53:20.062Z,48.35
2023-02-13T18:58:11.875Z,49.70
2023-02-13T19:03:03.691Z,47.70
2023-02-13T19:07:55.465Z,47.90
2023-02-13T19:12:48.664Z,45.53
2023-02-13T19:17:40.471Z,47.45
2023-02-13T19:22:32.677Z,48.45
2023-02-13T19:27:24.556Z,45.13
2023-02-13T19:32:16.336Z,50.47
2023-02-13T19:37:08.179Z,49.38
2023-02-13T19:41:59.941Z,47.97
2023-02-13T19:46:51.904Z,49.33
2023-02-13T19:51:46.349Z,49.70
2023-02-13T19:56:39.559Z,51.28
2023-02-13T20:01:31.814Z,51.42
2023-02-13T20:06:31.098Z,49.35
2023-02-13T20:11:22.983Z,50.13
2023-02-13T20:16:16.908Z,52.10
2023-02-13T20:21:10.632Z,50.83
2023-02-13T20:26:08.048Z,49.20
2023-02-13T20:31:01.108Z,47.95
2023-02-13T20:35:53.192Z,49.45
2023-02-13T20:40:44.976Z,50.97
2023-02-13T20:45:36.723Z,49.25
2023-02-13T20:50:28.524Z,49.90
2023-02-13T20:55:20.256Z,48.90
2023-02-13T21:00:13.555Z,49.95
2023-02-13T21:05:05.599Z,48.05
2023-02-13T21:09:57.475Z,46.60
2023-02-13T21:14:49.299Z,49.10
2023-02-13T21:19:41.663Z,47.47
2023-02-13T21:24:33.387Z,48.95
2023-02-13T21:29:25.095Z,47.55
2023-02-13T21:34:18.289Z,49.05
2023-02-13T21:39:12.081Z,48.30
2023-02-13T21:44:03.900Z,50.58
2023-02-13T21:49:01.893Z,51.15
2023-02-13T21:53:54.344Z,50.17
2023-02-13T21:58:47.124Z,47.55
2023-02-13T22:03:39.491Z,48.50
2023-02-13T22:08:31.454Z,44.78
2023-02-13T22:13:23.949Z,45.22
2023-02-13T22:18:15.787Z,44.38
2023-02-13T22:23:07.512Z,42.08
2023-02-13T22:27:59.312Z,42.28
2023-02-13T22:32:51.086Z,40.10
2023-02-13T22:37:42.859Z,40.40
2023-02-13T22:42:34.590Z,42.17
2023-02-13T22:47:26.459Z,39.97
2023-02-13T22:52:18.175Z,39.88
2023-02-13T22:57:09.884Z,41.22
2023-02-13T23:02:03.142Z,40.08
2023-02-13T23:06:54.954Z,41.17
2023-02-13T23:12:05.226Z,42.17
2023-02-13T23:17:18.758Z,45.38
2023-02-13T23:22:13.586Z,44.67
2023-02-13T23:27:05.469Z,42.85
2023-02-13T23:31:57.375Z,43.15
2023-02-13T23:36:49.261Z,43.72
2023-02-13T23:41:41.152Z,40.85
2023-02-13T23:46:32.967Z,41.22
2023-02-13T23:51:25.784Z,39.33
2023-02-13T23:56:17.521Z,42.60
